sensor_id;sensor_type;location;lat;lon;timestamp;pressure;altitude;pressure_sealevel;temperature;humidity
27334;BME280;14817;57.104;-2.094;2024-01-15T00:00:10;99261.53;;;-1.32;100.00
27334;BME280;14817;57.104;-2.094;2024-01-15T00:02:37;99298.38;;;-1.33;100.00
27334;BME280;14817;57.104;-2.094;2024-01-15T00:05:04;99347.88;;;-1.27;100.00
27334;BME280;14817;57.104;-2.094;2024-01-15T00:07:31;99401.97;;;-1.25;100.00
27334;BME280;14817;57.104;-2.094;2024-01-15T00:09:57;99445.78;;;-1.25;100.00
27334;BME280;14817;57.104;-2.094;2024-01-15T00:12:24;99476.16;;;-1.21;100.00
27334;BME280;14817;57.104;-2.094;2024-01-15T00:14:51;99509.16;;;-1.17;100.00
27334;BME280;14817;57.104;-2.094;2024-01-15T00:17:18;99555.78;;;-1.20;100.00
27334;BME280;14817;57.104;-2.094;2024-01-15T00:19:45;99571.16;;;-1.14;100.00
27334;BME280;14817;57.104;-2.094;2024-01-15T00:22:11;99620.75;;;-1.10;100.00
27334;BME280;14817;57.104;-2.094;2024-01-15T00:24:38;99732.88;;;-0.96;100.00
27334;BME280;14817;57.104;-2.094;2024-01-15T00:27:05;99733.63;;;-0.94;100.00
27334;BME280;14817;57.104;-2.094;2024-01-15T00:29:32;99685.66;;;-0.97;100.00
27334;BME280;14817;57.104;-2.094;2024-01-15T00:31:58;99552.38;;;-0.95;100.00
27334;BME280;14817;57.104;-2.094;2024-01-15T00:34:25;99489.41;;;-1.10;100.00
27334;BME280;14817;57.104;-2.094;2024-01-15T00:36:52;99495.28;;;-1.06;100.00
27334;BME280;14817;57.104;-2.094;2024-01-15T00:39:19;99534.06;;;-1.10;100.00
27334;BME280;14817;57.104;-2.094;2024-01-15T00:41:45;99585.25;;;-1.03;100.00
27334;BME280;14817;57.104;-2.094;2024-01-15T00:44:12;99662.94;;;-0.98;100.00
27334;BME280;14817;57.104;-2.094;2024-01-15T00:46:45;99736.47;;;-0.84;100.00
27334;BME280;14817;57.104;-2.094;2024-01-15T00:49:13;99770.75;;;-0.86;100.00
27334;BME280;14817;57.104;-2.094;2024-01-15T00:51:40;99747.66;;;-0.80;100.00
27334;BME280;14817;57.104;-2.094;2024-01-15T00:54:07;99736.47;;;-0.84;100.00
27334;BME280;14817;57.104;-2.094;2024-01-15T00:56:36;99725.53;;;-0.91;100.00
27334;BME280;14817;57.104;-2.094;2024-01-15T00:59:03;99660.97;;;-0.95;100.00
27334;BME280;14817;57.104;-2.094;2024-01-15T01:01:29;99676.47;;;-1.05;100.00
27334;BME280;14817;57.104;-2.094;2024-01-15T01:03:56;99686.25;;;-1.07;100.00
27334;BME280;14817;57.104;-2.094;2024-01-15T01:06:23;99710.63;;;-1.05;100.00
27334;BME280;14817;57.104;-2.094;2024-01-15T01:08:50;99726.75;;;-0.96;100.00
27334;BME280;14817;57.104;-2.094;2024-01-15T01:11:17;99755.28;;;-1.05;100.00
27334;BME280;14817;57.104;-2.094;2024-01-15T01:13:44;99780.09;;;-1.09;100.00
27334;BME280;14817;57.104;-2.094;2024-01-15T01:16:10;99771.72;;;-1.01;100.00
27334;BME280;14817;57.104;-2.094;2024-01-15T01:18:37;99817.22;;;-1.00;100.00
27334;BME280;14817;57.104;-2.094;2024-01-15T01:21:04;99866.31;;;-1.01;100.00
27334;BME280;14817;57.104;-2.094;2024-01-15T01:23:31;99881.34;;;-1.03;100.00
27334;BME280;14817;57.104;-2.094;2024-01-15T01:25:58;99937.75;;;-0.80;100.00
27334;BME280;14817;57.104;-2.094;2024-01-15T01:28:24;99947.88;;;-0.88;100.00
27334;BME280;14817;57.104;-2.094;2024-01-15T01:30:51;99945.94;;;-0.85;100.00
27334;BME280;14817;57.104;-2.094;2024-01-15T01:33:18;99863.91;;;-1.04;100.00
27334;BME280;14817;57.104;-2.094;2024-01-15T01:35:45;99778.31;;;-1.23;100.00
27334;BME280;14817;57.104;-2.094;2024-01-15T01:38:13;99584.50;;;-1.05;100.00
27334;BME280;14817;57.104;-2.094;2024-01-15T01:40:40;99591.97;;;-0.98;100.00
27334;BME280;14817;57.104;-2.094;2024-01-15T01:43:08;99674.44;;;-0.87;100.00
27334;BME280;14817;57.104;-2.094;2024-01-15T01:45:35;99706.06;;;-0.88;100.00
27334;BME280;14817;57.104;-2.094;2024-01-15T01:48:02;99751.06;;;-0.93;100.00
27334;BME280;14817;57.104;-2.094;2024-01-15T01:50:30;99784.06;;;-0.74;100.00
27334;BME280;14817;57.104;-2.094;2024-01-15T01:52:58;99815.16;;;-0.95;100.00
27334;BME280;14817;57.104;-2.094;2024-01-15T01:55:26;99851.38;;;-1.00;100.00
27334;BME280;14817;57.104;-2.094;2024-01-15T01:57:53;99857.31;;;-0.97;100.00
27334;BME280;14817;57.104;-2.094;2024-01-15T02:00:21;99828.88;;;-1.05;100.00
27334;BME280;14817;57.104;-2.094;2024-01-15T02:02:48;99813.97;;;-1.04;100.00
27334;BME280;14817;57.104;-2.094;2024-01-15T02:05:14;99807.66;;;-1.01;100.00
27334;BME280;14817;57.104;-2.094;2024-01-15T02:07:44;99832.38;;;-1.04;100.00
27334;BME280;14817;57.104;-2.094;2024-01-15T02:10:11;99825.47;;;-0.92;100.00
27334;BME280;14817;57.104;-2.094;2024-01-15T02:12:37;99838.06;;;-0.97;100.00
27334;BME280;14817;57.104;-2.094;2024-01-15T02:15:04;99844.25;;;-0.98;100.00
27334;BME280;14817;57.104;-2.094;2024-01-15T02:17:31;99843.41;;;-0.99;100.00
27334;BME280;14817;57.104;-2.094;2024-01-15T02:19:58;99879.53;;;-1.03;100.00
27334;BME280;14817;57.104;-2.094;2024-01-15T02:22:25;99900.97;;;-1.09;100.00
27334;BME280;14817;57.104;-2.094;2024-01-15T02:24:51;99932.09;;;-1.03;100.00
27334;BME280;14817;57.104;-2.094;2024-01-15T02:27:18;99973.88;;;-1.12;100.00
27334;BME280;14817;57.104;-2.094;2024-01-15T02:29:45;100013.19;;;-1.11;100.00
27334;BME280;14817;57.104;-2.094;2024-01-15T02:32:12;100028.78;;;-1.08;100.00
27334;BME280;14817;57.104;-2.094;2024-01-15T02:34:39;100019.97;;;-1.07;100.00
27334;BME280;14817;57.104;-2.094;2024-01-15T02:37:06;100039.28;;;-1.08;100.00
27334;BME280;14817;57.104;-2.094;2024-01-15T02:39:33;100111.19;;;-1.09;100.00
27334;BME280;14817;57.104;-2.094;2024-01-15T02:42:00;100137.75;;;-0.99;100.00
27334;BME280;14817;57.104;-2.094;2024-01-15T02:44:26;100254.25;;;-0.98;100.00
27334;BME280;14817;57.104;-2.094;2024-01-15T02:46:53;100164.50;;;-1.07;100.00
27334;BME280;14817;57.104;-2.094;2024-01-15T02:49:20;100193.72;;;-0.97;100.00
27334;BME280;14817;57.104;-2.094;2024-01-15T02:51:47;100235.75;;;-0.97;100.00
27334;BME280;14817;57.104;-2.094;2024-01-15T02:54:13;100259.91;;;-0.90;100.00
27334;BME280;14817;57.104;-2.094;2024-01-15T02:56:40;100270.88;;;-0.98;100.00
27334;BME280;14817;57.104;-2.094;2024-01-15T02:59:07;100266.97;;;-1.07;100.00
27334;BME280;14817;57.104;-2.094;2024-01-15T03:01:34;100258.38;;;-1.26;100.00
27334;BME280;14817;57.104;-2.094;2024-01-15T03:04:00;100260.53;;;-1.17;100.00
27334;BME280;14817;57.104;-2.094;2024-01-15T03:06:27;100226.47;;;-1.34;100.00
27334;BME280;14817;57.104;-2.094;2024-01-15T03:08:54;100249.56;;;-1.41;100.00
27334;BME280;14817;57.104;-2.094;2024-01-15T03:11:21;100210.00;;;-1.38;100.00
27334;BME280;14817;57.104;-2.094;2024-01-15T03:13:47;100171.38;;;-1.36;100.00
27334;BME280;14817;57.104;-2.094;2024-01-15T03:16:14;100068.34;;;-1.41;100.00
27334;BME280;14817;57.104;-2.094;2024-01-15T03:18:41;100020.72;;;-1.35;100.00
27334;BME280;14817;57.104;-2.094;2024-01-15T03:21:07;99993.19;;;-1.28;100.00
27334;BME280;14817;57.104;-2.094;2024-01-15T03:23:34;99977.78;;;-1.34;100.00
27334;BME280;14817;57.104;-2.094;2024-01-15T03:26:01;100017.94;;;-1.32;100.00
27334;BME280;14817;57.104;-2.094;2024-01-15T03:28:28;100050.09;;;-1.28;100.00
27334;BME280;14817;57.104;-2.094;2024-01-15T03:30:56;100074.06;;;-1.18;100.00
27334;BME280;14817;57.104;-2.094;2024-01-15T03:33:23;100081.50;;;-1.11;100.00
27334;BME280;14817;57.104;-2.094;2024-01-15T03:35:50;100098.13;;;-1.10;100.00
27334;BME280;14817;57.104;-2.094;2024-01-15T03:38:17;100133.97;;;-1.09;100.00
27334;BME280;14817;57.104;-2.094;2024-01-15T03:40:44;100153.06;;;-1.21;100.00
27334;BME280;14817;57.104;-2.094;2024-01-15T03:43:10;100169.16;;;-1.28;100.00
27334;BME280;14817;57.104;-2.094;2024-01-15T03:45:37;100144.16;;;-1.35;100.00
27334;BME280;14817;57.104;-2.094;2024-01-15T03:48:04;100125.97;;;-1.38;100.00
27334;BME280;14817;57.104;-2.094;2024-01-15T03:50:31;100104.69;;;-1.33;100.00
27334;BME280;14817;57.104;-2.094;2024-01-15T03:52:58;99830.41;;;-1.29;100.00
27334;BME280;14817;57.104;-2.094;2024-01-15T03:55:24;99858.25;;;-1.27;100.00
27334;BME280;14817;57.104;-2.094;2024-01-15T03:57:51;99880.59;;;-1.34;100.00
27334;BME280;14817;57.104;-2.094;2024-01-15T04:00:18;99908.91;;;-1.39;100.00
27334;BME280;14817;57.104;-2.094;2024-01-15T04:02:45;99939.00;;;-1.45;100.00
27334;BME280;14817;57.104;-2.094;2024-01-15T04:05:12;99963.13;;;-1.38;100.00
27334;BME280;14817;57.104;-2.094;2024-01-15T04:07:38;99978.56;;;-1.48;100.00
27334;BME280;14817;57.104;-2.094;2024-01-15T04:10:05;100013.19;;;-1.41;100.00
27334;BME280;14817;57.104;-2.094;2024-01-15T04:12:32;100041.22;;;-1.41;100.00
27334;BME280;14817;57.104;-2.094;2024-01-15T04:14:59;100091.31;;;-1.45;100.00
27334;BME280;14817;57.104;-2.094;2024-01-15T04:17:26;100133.34;;;-1.45;100.00
27334;BME280;14817;57.104;-2.094;2024-01-15T04:19:53;100183.38;;;-1.48;100.00
27334;BME280;14817;57.104;-2.094;2024-01-15T04:22:20;100205.78;;;-1.40;100.00
27334;BME280;14817;57.104;-2.094;2024-01-15T04:24:47;100202.06;;;-1.36;100.00
27334;BME280;14817;57.104;-2.094;2024-01-15T04:27:13;100185.84;;;-1.29;100.00
27334;BME280;14817;57.104;-2.094;2024-01-15T04:29:40;100101.03;;;-1.31;100.00
27334;BME280;14817;57.104;-2.094;2024-01-15T04:32:07;100017.94;;;-1.32;100.00
27334;BME280;14817;57.104;-2.094;2024-01-15T04:34:34;99918.47;;;-1.38;100.00
27334;BME280;14817;57.104;-2.094;2024-01-15T04:37:01;99827.22;;;-1.34;100.00
27334;BME280;14817;57.104;-2.094;2024-01-15T04:39:28;99736.59;;;-1.41;100.00
27334;BME280;14817;57.104;-2.094;2024-01-15T04:41:54;99661.09;;;-1.38;100.00
27334;BME280;14817;57.104;-2.094;2024-01-15T04:44:21;99534.63;;;-1.45;100.00
27334;BME280;14817;57.104;-2.094;2024-01-15T04:46:48;99411.81;;;-1.41;100.00
27334;BME280;14817;57.104;-2.094;2024-01-15T04:49:15;99339.25;;;-1.42;100.00
27334;BME280;14817;57.104;-2.094;2024-01-15T04:51:42;99309.31;;;-1.39;100.00
27334;BME280;14817;57.104;-2.094;2024-01-15T04:54:08;99263.94;;;-1.41;100.00
27334;BME280;14817;57.104;-2.094;2024-01-15T04:56:35;99220.03;;;-1.39;100.00
27334;BME280;14817;57.104;-2.094;2024-01-15T04:59:02;99181.34;;;-1.25;100.00
27334;BME280;14817;57.104;-2.094;2024-01-15T05:01:32;99140.97;;;-1.11;100.00
27334;BME280;14817;57.104;-2.094;2024-01-15T05:03:59;99114.19;;;-1.05;100.00
27334;BME280;14817;57.104;-2.094;2024-01-15T05:06:26;99111.41;;;-0.90;100.00
27334;BME280;14817;57.104;-2.094;2024-01-15T05:08:53;99093.59;;;-0.98;100.00
27334;BME280;14817;57.104;-2.094;2024-01-15T05:11:20;99097.03;;;-1.09;100.00
27334;BME280;14817;57.104;-2.094;2024-01-15T05:13:46;99039.75;;;-1.28;100.00
27334;BME280;14817;57.104;-2.094;2024-01-15T05:16:13;99010.75;;;-1.26;100.00
27334;BME280;14817;57.104;-2.094;2024-01-15T05:18:40;98989.34;;;-1.33;100.00
27334;BME280;14817;57.104;-2.094;2024-01-15T05:21:07;99016.94;;;-1.27;100.00
27334;BME280;14817;57.104;-2.094;2024-01-15T05:23:33;99046.75;;;-1.39;100.00
27334;BME280;14817;57.104;-2.094;2024-01-15T05:26:00;99136.34;;;-1.20;100.00
27334;BME280;14817;57.104;-2.094;2024-01-15T05:28:27;99237.53;;;-1.14;100.00
27334;BME280;14817;57.104;-2.094;2024-01-15T05:30:54;99338.41;;;-1.17;100.00
27334;BME280;14817;57.104;-2.094;2024-01-15T05:33:22;99438.75;;;-1.12;100.00
27334;BME280;14817;57.104;-2.094;2024-01-15T05:35:49;99509.97;;;-1.29;100.00
27334;BME280;14817;57.104;-2.094;2024-01-15T05:38:16;99591.47;;;-1.31;100.00
27334;BME280;14817;57.104;-2.094;2024-01-15T05:40:43;99617.66;;;-1.29;100.00
27334;BME280;14817;57.104;-2.094;2024-01-15T05:43:10;99640.25;;;-1.27;100.00
27334;BME280;14817;57.104;-2.094;2024-01-15T05:45:38;99701.84;;;-1.45;100.00
27334;BME280;14817;57.104;-2.094;2024-01-15T05:48:05;99813.72;;;-1.42;100.00
27334;BME280;14817;57.104;-2.094;2024-01-15T05:50:32;99880.84;;;-1.24;100.00
27334;BME280;14817;57.104;-2.094;2024-01-15T05:53:01;99923.38;;;-1.32;100.00
27334;BME280;14817;57.104;-2.094;2024-01-15T05:55:29;99931.13;;;-1.45;100.00
27334;BME280;14817;57.104;-2.094;2024-01-15T05:57:55;99960.94;;;-1.46;100.00
27334;BME280;14817;57.104;-2.094;2024-01-15T06:00:22;99975.78;;;-1.30;100.00
27334;BME280;14817;57.104;-2.094;2024-01-15T06:02:49;99983.22;;;-1.23;100.00
27334;BME280;14817;57.104;-2.094;2024-01-15T06:05:16;99999.81;;;-1.22;100.00
27334;BME280;14817;57.104;-2.094;2024-01-15T06:07:42;99990.09;;;-1.06;100.00
27334;BME280;14817;57.104;-2.094;2024-01-15T06:10:09;99976.50;;;-1.12;100.00
27334;BME280;14817;57.104;-2.094;2024-01-15T06:12:36;99942.44;;;-0.99;100.00
27334;BME280;14817;57.104;-2.094;2024-01-15T06:15:03;99901.91;;;-0.95;100.00
27334;BME280;14817;57.104;-2.094;2024-01-15T06:17:29;99866.69;;;-1.07;100.00
27334;BME280;14817;57.104;-2.094;2024-01-15T06:19:57;99810.50;;;-1.19;100.00
27334;BME280;14817;57.104;-2.094;2024-01-15T06:22:24;99746.16;;;-1.26;100.00
27334;BME280;14817;57.104;-2.094;2024-01-15T06:24:51;99696.06;;;-1.23;100.00
27334;BME280;14817;57.104;-2.094;2024-01-15T06:27:18;99609.47;;;-1.25;100.00
27334;BME280;14817;57.104;-2.094;2024-01-15T06:29:45;99491.38;;;-1.26;100.00
27334;BME280;14817;57.104;-2.094;2024-01-15T06:32:16;99431.19;;;-1.29;100.00
27334;BME280;14817;57.104;-2.094;2024-01-15T06:34:43;99385.78;;;-1.31;100.00
27334;BME280;14817;57.104;-2.094;2024-01-15T06:37:10;99371.09;;;-1.34;100.00
27334;BME280;14817;57.104;-2.094;2024-01-15T06:39:36;99347.03;;;-1.40;100.00
27334;BME280;14817;57.104;-2.094;2024-01-15T06:42:03;99307.53;;;-1.39;100.00
27334;BME280;14817;57.104;-2.094;2024-01-15T06:44:30;99273.53;;;-1.53;100.00
27334;BME280;14817;57.104;-2.094;2024-01-15T06:46:57;99267.56;;;-1.55;100.00
27334;BME280;14817;57.104;-2.094;2024-01-15T06:49:23;99270.03;;;-1.54;100.00
27334;BME280;14817;57.104;-2.094;2024-01-15T06:51:50;99262.41;;;-1.57;100.00
27334;BME280;14817;57.104;-2.094;2024-01-15T06:54:17;99269.22;;;-1.54;100.00
27334;BME280;14817;57.104;-2.094;2024-01-15T06:56:44;99264.28;;;-1.72;100.00
27334;BME280;14817;57.104;-2.094;2024-01-15T06:59:11;99270.38;;;-1.58;100.00
27334;BME280;14817;57.104;-2.094;2024-01-15T07:01:41;99240.66;;;-1.59;100.00
27334;BME280;14817;57.104;-2.094;2024-01-15T07:04:08;99227.84;;;-1.51;100.00
27334;BME280;14817;57.104;-2.094;2024-01-15T07:06:34;99188.03;;;-1.45;100.00
27334;BME280;14817;57.104;-2.094;2024-01-15T07:09:01;99171.91;;;-1.27;100.00
27334;BME280;14817;57.104;-2.094;2024-01-15T07:11:28;99151.19;;;-1.19;100.00
27334;BME280;14817;57.104;-2.094;2024-01-15T07:13:55;99174.19;;;-1.23;100.00
27334;BME280;14817;57.104;-2.094;2024-01-15T07:16:21;99282.88;;;-1.62;100.00
27334;BME280;14817;57.104;-2.094;2024-01-15T07:19:03;99561.06;;;-1.48;100.00
27334;BME280;14817;57.104;-2.094;2024-01-15T07:21:30;99676.44;;;-1.59;100.00
27334;BME280;14817;57.104;-2.094;2024-01-15T07:23:56;99746.19;;;-1.69;100.00
27334;BME280;14817;57.104;-2.094;2024-01-15T07:26:23;99800.28;;;-1.67;100.00
27334;BME280;14817;57.104;-2.094;2024-01-15T07:28:50;99807.91;;;-1.62;100.00
27334;BME280;14817;57.104;-2.094;2024-01-15T07:31:17;99764.38;;;-1.66;100.00
27334;BME280;14817;57.104;-2.094;2024-01-15T07:33:44;99682.72;;;-1.61;100.00
27334;BME280;14817;57.104;-2.094;2024-01-15T07:36:11;99617.38;;;-1.66;100.00
27334;BME280;14817;57.104;-2.094;2024-01-15T07:38:38;99546.00;;;-1.58;100.00
27334;BME280;14817;57.104;-2.094;2024-01-15T07:41:04;99450.69;;;-1.46;100.00
27334;BME280;14817;57.104;-2.094;2024-01-15T07:43:31;99383.25;;;-1.46;100.00
27334;BME280;14817;57.104;-2.094;2024-01-15T07:45:58;99330.66;;;-1.44;100.00
27334;BME280;14817;57.104;-2.094;2024-01-15T07:48:25;99328.34;;;-1.36;100.00
27334;BME280;14817;57.104;-2.094;2024-01-15T07:50:52;99334.00;;;-1.29;100.00
27334;BME280;14817;57.104;-2.094;2024-01-15T07:53:19;99379.81;;;-1.33;100.00
27334;BME280;14817;57.104;-2.094;2024-01-15T07:55:46;99526.38;;;-1.26;100.00
27334;BME280;14817;57.104;-2.094;2024-01-15T07:58:12;99581.75;;;-1.16;100.00
27334;BME280;14817;57.104;-2.094;2024-01-15T08:00:42;99591.28;;;-1.28;100.00
27334;BME280;14817;57.104;-2.094;2024-01-15T08:03:10;99738.97;;;-1.66;100.00
27334;BME280;14817;57.104;-2.094;2024-01-15T08:05:37;99881.41;;;-1.62;100.00
27334;BME280;14817;57.104;-2.094;2024-01-15T08:08:04;99953.34;;;-1.80;100.00
27334;BME280;14817;57.104;-2.094;2024-01-15T08:10:30;100025.38;;;-1.70;100.00
27334;BME280;14817;57.104;-2.094;2024-01-15T08:12:57;100014.59;;;-1.81;100.00
27334;BME280;14817;57.104;-2.094;2024-01-15T08:15:24;100015.81;;;-1.87;100.00
27334;BME280;14817;57.104;-2.094;2024-01-15T08:17:56;100002.84;;;-1.74;100.00
27334;BME280;14817;57.104;-2.094;2024-01-15T08:20:23;99952.84;;;-1.87;100.00
27334;BME280;14817;57.104;-2.094;2024-01-15T08:22:50;99897.47;;;-1.82;100.00
27334;BME280;14817;57.104;-2.094;2024-01-15T08:25:16;99923.84;;;-2.00;100.00
27334;BME280;14817;57.104;-2.094;2024-01-15T08:27:43;99971.53;;;-2.09;100.00
27334;BME280;14817;57.104;-2.094;2024-01-15T08:30:10;100011.59;;;-1.90;100.00
27334;BME280;14817;57.104;-2.094;2024-01-15T08:32:37;100055.44;;;-1.92;100.00
27334;BME280;14817;57.104;-2.094;2024-01-15T08:35:08;100093.53;;;-1.85;100.00
27334;BME280;14817;57.104;-2.094;2024-01-15T08:37:36;100110.97;;;-1.83;100.00
27334;BME280;14817;57.104;-2.094;2024-01-15T08:40:03;100147.22;;;-1.74;100.00
27334;BME280;14817;57.104;-2.094;2024-01-15T08:42:30;100156.38;;;-1.66;100.00
27334;BME280;14817;57.104;-2.094;2024-01-15T08:44:57;100162.38;;;-1.63;100.00
27334;BME280;14817;57.104;-2.094;2024-01-15T08:47:24;100140.44;;;-1.62;100.00
27334;BME280;14817;57.104;-2.094;2024-01-15T08:49:52;100111.72;;;-1.50;100.00
27334;BME280;14817;57.104;-2.094;2024-01-15T08:52:19;100061.81;;;-1.34;100.00
27334;BME280;14817;57.104;-2.094;2024-01-15T08:54:46;99983.91;;;-1.05;100.00
27334;BME280;14817;57.104;-2.094;2024-01-15T08:57:13;99885.19;;;-0.94;100.00
27334;BME280;14817;57.104;-2.094;2024-01-15T08:59:40;99811.50;;;-1.07;100.00
27334;BME280;14817;57.104;-2.094;2024-01-15T09:02:07;99831.53;;;-1.19;100.00
27334;BME280;14817;57.104;-2.094;2024-01-15T09:04:34;99806.09;;;-1.33;100.00
27334;BME280;14817;57.104;-2.094;2024-01-15T09:07:01;99841.09;;;-1.18;100.00
27334;BME280;14817;57.104;-2.094;2024-01-15T09:09:28;99858.81;;;-1.50;100.00
27334;BME280;14817;57.104;-2.094;2024-01-15T09:11:55;99930.28;;;-1.31;100.00
27334;BME280;14817;57.104;-2.094;2024-01-15T09:14:22;99947.47;;;-1.25;100.00
27334;BME280;14817;57.104;-2.094;2024-01-15T09:17:03;99948.56;;;-1.44;100.00
27334;BME280;14817;57.104;-2.094;2024-01-15T09:19:30;99927.19;;;-1.37;100.00
27334;BME280;14817;57.104;-2.094;2024-01-15T09:21:57;99908.00;;;-0.95;100.00
27334;BME280;14817;57.104;-2.094;2024-01-15T09:24:23;99851.94;;;-0.39;100.00
27334;BME280;14817;57.104;-2.094;2024-01-15T09:26:54;99734.31;;;-0.25;100.00
27334;BME280;14817;57.104;-2.094;2024-01-15T09:29:21;99552.50;;;0.04;100.00
27334;BME280;14817;57.104;-2.094;2024-01-15T09:31:50;99315.03;;;0.01;100.00
27334;BME280;14817;57.104;-2.094;2024-01-15T09:34:17;99148.94;;;-0.42;100.00
27334;BME280;14817;57.104;-2.094;2024-01-15T09:36:44;99102.13;;;-1.07;100.00
27334;BME280;14817;57.104;-2.094;2024-01-15T09:39:11;99190.03;;;-0.87;100.00
27334;BME280;14817;57.104;-2.094;2024-01-15T09:41:38;99240.44;;;-0.82;100.00
27334;BME280;14817;57.104;-2.094;2024-01-15T09:44:05;99298.38;;;-1.20;100.00
27334;BME280;14817;57.104;-2.094;2024-01-15T09:46:37;99432.44;;;-1.22;100.00
27334;BME280;14817;57.104;-2.094;2024-01-15T09:49:04;99547.56;;;-0.63;100.00
27334;BME280;14817;57.104;-2.094;2024-01-15T09:51:32;99589.94;;;-0.16;100.00
27334;BME280;14817;57.104;-2.094;2024-01-15T09:53:59;99552.25;;;-0.04;100.00
27334;BME280;14817;57.104;-2.094;2024-01-15T09:56:25;99500.88;;;0.14;100.00
27334;BME280;14817;57.104;-2.094;2024-01-15T09:58:52;99454.03;;;0.19;100.00
27334;BME280;14817;57.104;-2.094;2024-01-15T10:01:22;99412.34;;;0.13;100.00
27334;BME280;14817;57.104;-2.094;2024-01-15T10:03:50;99388.66;;;-0.11;100.00
27334;BME280;14817;57.104;-2.094;2024-01-15T10:06:17;99396.25;;;0.29;100.00
27334;BME280;14817;57.104;-2.094;2024-01-15T10:08:51;99352.19;;;0.31;100.00
27334;BME280;14817;57.104;-2.094;2024-01-15T10:11:18;99294.78;;;0.36;100.00
27334;BME280;14817;57.104;-2.094;2024-01-15T10:13:45;99269.03;;;0.74;100.00
27334;BME280;14817;57.104;-2.094;2024-01-15T10:16:14;99200.38;;;0.87;100.00
27334;BME280;14817;57.104;-2.094;2024-01-15T10:18:41;99137.94;;;0.98;100.00
27334;BME280;14817;57.104;-2.094;2024-01-15T10:21:09;99091.78;;;0.72;100.00
27334;BME280;14817;57.104;-2.094;2024-01-15T10:23:35;99121.59;;;0.17;100.00
27334;BME280;14817;57.104;-2.094;2024-01-15T10:26:03;99313.44;;;-0.37;100.00
27334;BME280;14817;57.104;-2.094;2024-01-15T10:28:29;99468.69;;;-0.76;100.00
27334;BME280;14817;57.104;-2.094;2024-01-15T10:30:57;99659.09;;;-0.80;100.00
27334;BME280;14817;57.104;-2.094;2024-01-15T10:33:25;99814.03;;;-0.91;100.00
27334;BME280;14817;57.104;-2.094;2024-01-15T10:35:53;99891.69;;;-1.00;100.00
27334;BME280;14817;57.104;-2.094;2024-01-15T10:38:21;99984.88;;;-0.77;100.00
27334;BME280;14817;57.104;-2.094;2024-01-15T10:40:52;100029.00;;;-0.82;100.00
27334;BME280;14817;57.104;-2.094;2024-01-15T10:43:19;100072.53;;;-0.33;100.00
27334;BME280;14817;57.104;-2.094;2024-01-15T10:45:46;100060.97;;;-0.59;100.00
27334;BME280;14817;57.104;-2.094;2024-01-15T10:48:15;100059.53;;;-0.65;100.00
27334;BME280;14817;57.104;-2.094;2024-01-15T10:50:43;100052.31;;;-0.76;100.00
27334;BME280;14817;57.104;-2.094;2024-01-15T10:53:11;100046.59;;;-0.39;100.00
27334;BME280;14817;57.104;-2.094;2024-01-15T10:55:38;100013.47;;;0.27;100.00
27334;BME280;14817;57.104;-2.094;2024-01-15T10:58:06;99907.00;;;0.31;100.00
27334;BME280;14817;57.104;-2.094;2024-01-15T11:00:35;99819.41;;;0.91;100.00
27334;BME280;14817;57.104;-2.094;2024-01-15T11:03:02;99643.03;;;0.27;100.00
27334;BME280;14817;57.104;-2.094;2024-01-15T11:05:32;99632.13;;;-0.05;100.00
27334;BME280;14817;57.104;-2.094;2024-01-15T11:07:59;99736.75;;;-0.22;100.00
27334;BME280;14817;57.104;-2.094;2024-01-15T11:10:40;99777.22;;;-0.64;100.00
27334;BME280;14817;57.104;-2.094;2024-01-15T11:13:13;99826.94;;;-0.59;100.00
27334;BME280;14817;57.104;-2.094;2024-01-15T11:18:23;99764.13;;;-0.11;100.00
27334;BME280;14817;57.104;-2.094;2024-01-15T11:23:42;99633.94;;;0.44;100.00
27334;BME280;14817;57.104;-2.094;2024-01-15T11:28:56;99466.84;;;0.59;100.00
27334;BME280;14817;57.104;-2.094;2024-01-15T11:31:27;99469.72;;;0.56;100.00
27334;BME280;14817;57.104;-2.094;2024-01-15T11:33:54;99429.44;;;0.08;100.00
27334;BME280;14817;57.104;-2.094;2024-01-15T11:36:59;99862.16;;;-0.35;100.00
27334;BME280;14817;57.104;-2.094;2024-01-15T11:39:54;100076.94;;;-0.48;100.00
27334;BME280;14817;57.104;-2.094;2024-01-15T11:41:58;100098.91;;;-0.64;100.00
27334;BME280;14817;57.104;-2.094;2024-01-15T11:44:25;100097.53;;;-0.85;100.00
27334;BME280;14817;57.104;-2.094;2024-01-15T11:46:59;100090.13;;;-0.78;100.00
27334;BME280;14817;57.104;-2.094;2024-01-15T11:52:15;100098.91;;;-0.64;100.00
27334;BME280;14817;57.104;-2.094;2024-01-15T11:54:46;100086.00;;;-0.83;100.00
27334;BME280;14817;57.104;-2.094;2024-01-15T11:57:17;100084.81;;;-0.63;100.00
27334;BME280;14817;57.104;-2.094;2024-01-15T11:59:46;100073.06;;;-0.28;100.00
27334;BME280;14817;57.104;-2.094;2024-01-15T12:02:14;100006.06;;;-0.08;100.00
27334;BME280;14817;57.104;-2.094;2024-01-15T12:04:40;99917.47;;;0.05;100.00
27334;BME280;14817;57.104;-2.094;2024-01-15T12:07:07;99814.59;;;0.08;100.00
27334;BME280;14817;57.104;-2.094;2024-01-15T12:09:34;99749.38;;;-0.27;100.00
27334;BME280;14817;57.104;-2.094;2024-01-15T12:12:03;99828.56;;;-0.44;100.00
27334;BME280;14817;57.104;-2.094;2024-01-15T12:14:33;99918.00;;;-0.58;100.00
27334;BME280;14817;57.104;-2.094;2024-01-15T12:17:00;99974.72;;;-0.97;100.00
27334;BME280;14817;57.104;-2.094;2024-01-15T12:19:31;100024.47;;;-1.09;100.00
27334;BME280;14817;57.104;-2.094;2024-01-15T12:21:58;100053.84;;;-1.02;100.00
27334;BME280;14817;57.104;-2.094;2024-01-15T12:24:24;100074.41;;;-1.09;100.00
27334;BME280;14817;57.104;-2.094;2024-01-15T12:26:51;100079.25;;;-1.03;100.00
27334;BME280;14817;57.104;-2.094;2024-01-15T12:29:18;100073.00;;;-1.00;100.00
27334;BME280;14817;57.104;-2.094;2024-01-15T12:31:47;100061.53;;;-0.99;100.00
27334;BME280;14817;57.104;-2.094;2024-01-15T12:34:14;100044.22;;;-0.87;100.00
27334;BME280;14817;57.104;-2.094;2024-01-15T12:36:41;100007.78;;;-0.93;100.00
27334;BME280;14817;57.104;-2.094;2024-01-15T12:39:11;99961.31;;;-0.78;100.00
27334;BME280;14817;57.104;-2.094;2024-01-15T12:41:38;99905.91;;;-0.75;100.00
27334;BME280;14817;57.104;-2.094;2024-01-15T12:44:05;99843.31;;;-0.83;100.00
27334;BME280;14817;57.104;-2.094;2024-01-15T12:46:32;99789.63;;;-0.79;100.00
27334;BME280;14817;57.104;-2.094;2024-01-15T12:48:58;99751.94;;;-0.79;100.00